createdAt,value
2019-03-11T00:00:15.421Z,997.7
2019-03-11T00:03:15.031Z,997.7
2019-03-11T00:06:15.754Z,997.7
2019-03-11T00:09:15.471Z,997.6
2019-03-11T00:12:15.220Z,997.7
2019-03-11T00:15:15.089Z,997.7
2019-03-11T00:18:15.906Z,997.8
2019-03-11T00:21:15.752Z,997.7
2019-03-11T00:24:15.427Z,997.7
2019-03-11T00:27:15.065Z,997.6
2019-03-11T00:30:15.999Z,997.5
2019-03-11T00:33:15.683Z,997.5
2019-03-11T00:36:15.625Z,997.5
2019-03-11T00:42:14.921Z,997.4
2019-03-11T00:45:15.611Z,997.4
2019-03-11T00:48:15.317Z,997.3
2019-03-11T00:51:15.396Z,997.3
2019-03-11T00:54:15.069Z,997.3
2019-03-11T00:57:15.891Z,997.3
2019-03-11T01:00:15.652Z,997.2
2019-03-11T01:03:15.398Z,997.1
2019-03-11T01:09:15.706Z,997.0
2019-03-11T01:15:15.140Z,996.9
2019-03-11T01:18:14.952Z,996.8
2019-03-11T01:21:15.606Z,996.9
2019-03-11T01:24:15.315Z,996.9
2019-03-11T01:27:15.909Z,996.8
2019-03-11T01:30:15.591Z,996.9
2019-03-11T01:33:15.297Z,996.8
2019-03-11T01:36:15.021Z,996.7
2019-03-11T01:39:15.631Z,996.7
2019-03-11T01:42:15.224Z,996.7
2019-03-11T01:45:15.901Z,996.6
2019-03-11T01:48:15.648Z,996.6
2019-03-11T01:51:15.239Z,996.4
2019-03-11T01:54:14.881Z,996.3
2019-03-11T01:57:15.507Z,996.2
2019-03-11T02:00:15.108Z,996.3
2019-03-11T02:03:15.830Z,996.2
2019-03-11T02:06:15.404Z,996.1
2019-03-11T02:09:14.997Z,996.0
2019-03-11T02:12:15.612Z,996.0
2019-03-11T02:15:15.302Z,995.9
2019-03-11T02:18:15.139Z,996.0
2019-03-11T02:21:15.844Z,996.0
2019-03-11T02:24:15.589Z,995.9
2019-03-11T02:27:15.313Z,995.9
2019-03-11T02:30:15.830Z,995.9
2019-03-11T02:33:15.306Z,995.8
2019-03-11T02:36:15.896Z,995.7
2019-03-11T02:39:15.402Z,995.7
2019-03-11T02:42:15.826Z,995.7
2019-03-11T02:45:15.252Z,995.7
2019-03-11T02:48:15.677Z,995.7
2019-03-11T02:51:15.430Z,995.6
2019-03-11T02:54:14.909Z,995.6
2019-03-11T02:57:15.322Z,995.6
2019-03-11T03:00:14.922Z,995.7
2019-03-11T03:03:15.670Z,995.7
2019-03-11T03:06:15.691Z,995.7
2019-03-11T03:09:15.202Z,995.5
2019-03-11T03:12:15.529Z,995.4
2019-03-11T03:15:15.056Z,995.4
2019-03-11T03:18:15.879Z,995.3
2019-03-11T03:21:15.697Z,995.2
2019-03-11T03:24:15.542Z,995.1
2019-03-11T03:27:15.117Z,995.0
2019-03-11T03:30:15.854Z,995.1
2019-03-11T03:33:15.526Z,995.2
2019-03-11T03:36:15.024Z,995.1
2019-03-11T03:39:15.760Z,995.2
2019-03-11T03:42:15.496Z,995.2
2019-03-11T03:45:15.238Z,995.2
2019-03-11T03:48:15.281Z,995.3
2019-03-11T03:51:15.506Z,995.2
2019-03-11T03:54:15.102Z,995.2
2019-03-11T03:57:15.886Z,995.3
2019-03-11T04:00:15.590Z,995.2
2019-03-11T04:03:15.445Z,995.2
2019-03-11T04:06:15.323Z,995.2
2019-03-11T04:09:15.158Z,995.4
2019-03-11T04:12:15.849Z,995.3
2019-03-11T04:15:15.754Z,995.5
2019-03-11T04:18:15.532Z,995.4
2019-03-11T04:21:15.251Z,995.4
2019-03-11T04:24:14.915Z,995.4
2019-03-11T04:27:15.640Z,995.6
2019-03-11T04:30:15.544Z,995.6
2019-03-11T04:33:15.124Z,995.5
2019-03-11T04:36:15.643Z,995.6
2019-03-11T04:39:15.388Z,995.6
2019-03-11T04:42:14.940Z,995.5
2019-03-11T04:45:15.447Z,995.6
2019-03-11T04:48:15.029Z,995.8
2019-03-11T04:51:15.658Z,995.8
2019-03-11T04:54:15.687Z,996.0
2019-03-11T04:57:15.202Z,996.1
2019-03-11T05:00:15.715Z,996.1
2019-03-11T05:03:15.642Z,996.1
2019-03-11T05:06:15.204Z,996.1
2019-03-11T05:09:15.636Z,996.1
2019-03-11T05:12:15.103Z,996.1
2019-03-11T05:15:15.739Z,996.2
2019-03-11T05:18:15.346Z,996.3
2019-03-11T05:21:15.930Z,996.3
2019-03-11T05:24:15.598Z,996.3
2019-03-11T05:27:15.133Z,996.3
2019-03-11T05:30:15.682Z,996.3
2019-03-11T05:33:15.384Z,996.3
2019-03-11T05:36:15.096Z,996.3
2019-03-11T05:39:15.686Z,996.3
2019-03-11T05:42:15.376Z,996.3
2019-03-11T05:45:15.045Z,996.4
2019-03-11T05:48:15.620Z,996.4
2019-03-11T05:51:15.207Z,996.5
2019-03-11T05:54:15.678Z,996.5
2019-03-11T05:57:15.274Z,996.4
2019-03-11T06:00:16.005Z,996.4
2019-03-11T06:03:15.468Z,996.4
2019-03-11T06:06:15.035Z,996.3
2019-03-11T06:09:15.679Z,996.4
2019-03-11T06:12:15.148Z,996.5
2019-03-11T06:15:15.681Z,996.5
2019-03-11T06:18:15.377Z,996.4
2019-03-11T06:21:15.418Z,996.4
2019-03-11T06:24:15.538Z,996.5
2019-03-11T06:27:15.142Z,996.5
2019-03-11T06:30:15.563Z,996.5
2019-03-11T06:33:15.234Z,996.3
2019-03-11T06:36:15.777Z,996.4
2019-03-11T06:39:15.383Z,996.3
2019-03-11T06:42:14.891Z,996.4
2019-03-11T06:45:15.670Z,996.3
2019-03-11T06:48:15.470Z,996.4
2019-03-11T06:51:14.988Z,996.5
2019-03-11T06:54:15.658Z,996.5
2019-03-11T06:57:15.234Z,996.5
2019-03-11T07:00:15.099Z,996.5
2019-03-11T07:03:14.927Z,996.6
2019-03-11T07:06:15.431Z,996.6
2019-03-11T07:09:15.023Z,996.6
2019-03-11T07:12:15.703Z,996.6
2019-03-11T07:15:15.232Z,996.6
2019-03-11T07:18:15.933Z,996.7
2019-03-11T07:21:15.734Z,996.7
2019-03-11T07:24:15.305Z,996.7
2019-03-11T07:27:15.071Z,996.7
2019-03-11T07:30:15.624Z,996.6
2019-03-11T07:33:15.317Z,996.7
2019-03-11T07:36:15.097Z,996.7
2019-03-11T07:39:15.620Z,996.7
2019-03-11T07:42:15.037Z,996.8
2019-03-11T07:45:15.596Z,996.6
2019-03-11T07:48:15.325Z,996.7
2019-03-11T07:51:15.877Z,996.7
2019-03-11T07:54:15.460Z,996.9
2019-03-11T07:57:15.971Z,996.8
2019-03-11T08:00:15.796Z,996.9
2019-03-11T08:03:15.345Z,996.9
2019-03-11T08:06:18.808Z,996.8
2019-03-11T08:09:15.763Z,997.0
2019-03-11T08:12:15.706Z,997.0
2019-03-11T08:15:15.458Z,996.9
2019-03-11T08:18:15.215Z,997.0
2019-03-11T08:21:15.036Z,997.0
2019-03-11T08:24:16.791Z,997.0
2019-03-11T08:27:15.452Z,996.9
2019-03-11T08:30:15.915Z,996.9
2019-03-11T08:33:15.554Z,996.9
2019-03-11T08:36:15.312Z,996.7
2019-03-11T08:39:15.941Z,997.1
2019-03-11T08:42:15.435Z,997.0
2019-03-11T08:45:15.012Z,997.0
2019-03-11T08:48:15.783Z,997.0
2019-03-11T08:51:15.442Z,997.1
2019-03-11T08:54:15.245Z,997.0
2019-03-11T08:57:15.173Z,997.1
2019-03-11T09:00:15.826Z,997.1
2019-03-11T09:03:15.571Z,997.3
2019-03-11T09:06:15.269Z,997.5
2019-03-11T09:09:15.748Z,997.5
2019-03-11T09:12:15.101Z,997.6
2019-03-11T09:15:15.783Z,997.9
2019-03-11T09:18:15.552Z,997.8
2019-03-11T09:21:15.137Z,997.8
2019-03-11T09:24:19.474Z,997.9
2019-03-11T09:27:15.385Z,997.8
2019-03-11T09:30:15.091Z,997.9
2019-03-11T09:33:15.829Z,997.9
2019-03-11T09:36:15.515Z,997.8
2019-03-11T09:39:15.157Z,997.9
2019-03-11T09:42:15.798Z,997.8
2019-03-11T09:45:15.617Z,997.8
2019-03-11T09:48:15.425Z,997.9
2019-03-11T09:51:15.146Z,997.9
2019-03-11T09:54:15.729Z,997.9
2019-03-11T09:57:15.368Z,998.0
2019-03-11T10:00:15.124Z,998.0
2019-03-11T10:03:15.774Z,998.0
2019-03-11T10:06:15.363Z,998.1
2019-03-11T10:09:15.031Z,998.2
2019-03-11T10:12:15.852Z,998.2
2019-03-11T10:15:15.467Z,998.2
2019-03-11T10:18:15.289Z,998.4
2019-03-11T10:21:15.049Z,998.5
2019-03-11T10:24:15.721Z,998.7
2019-03-11T10:27:15.438Z,998.7
2019-03-11T10:30:15.139Z,998.8
2019-03-11T10:33:15.878Z,998.8
2019-03-11T10:36:15.663Z,998.8
2019-03-11T10:39:15.792Z,998.8
2019-03-11T10:42:15.542Z,998.8
2019-03-11T10:45:15.237Z,998.8
2019-03-11T10:48:15.879Z,998.8
2019-03-11T10:51:15.203Z,998.8
2019-03-11T10:54:15.129Z,998.8
2019-03-11T10:57:15.904Z,998.8
2019-03-11T11:00:15.589Z,998.8
2019-03-11T11:03:15.431Z,998.9
2019-03-11T11:06:17.212Z,998.9
2019-03-11T11:09:15.239Z,999.0
2019-03-11T11:12:15.937Z,999.1
2019-03-11T11:15:15.810Z,999.1
2019-03-11T11:18:15.775Z,999.2
2019-03-11T11:21:15.632Z,999.2
2019-03-11T11:24:15.474Z,999.2
2019-03-11T11:27:15.417Z,999.2
2019-03-11T11:30:15.097Z,999.1
2019-03-11T11:33:15.184Z,999.1
2019-03-11T11:36:15.130Z,999.1
2019-03-11T11:39:15.129Z,999.2
2019-03-11T11:42:15.036Z,999.1
2019-03-11T11:45:15.799Z,999.1
2019-03-11T11:48:15.818Z,999.2
2019-03-11T11:51:15.110Z,999.1
2019-03-11T11:54:16.033Z,999.2
2019-03-11T11:57:15.894Z,999.3
2019-03-11T12:00:15.969Z,999.4
2019-03-11T12:03:15.258Z,999.4
2019-03-11T12:06:16.014Z,999.4
2019-03-11T12:09:15.731Z,999.3
2019-03-11T12:12:15.421Z,999.3
2019-03-11T12:15:15.117Z,999.4
2019-03-11T12:18:15.917Z,999.5
2019-03-11T12:21:15.726Z,999.3
2019-03-11T12:24:15.293Z,999.3
2019-03-11T12:27:15.028Z,999.4
2019-03-11T12:30:15.768Z,999.4
2019-03-11T12:36:15.132Z,999.5
2019-03-11T12:39:15.047Z,999.3
2019-03-11T12:42:15.129Z,999.3
2019-03-11T12:45:15.994Z,999.4
2019-03-11T12:48:14.952Z,999.4
2019-03-11T12:51:15.951Z,999.4
2019-03-11T12:54:15.850Z,999.3
2019-03-11T12:57:15.425Z,999.4
2019-03-11T13:00:15.089Z,999.3
2019-03-11T13:03:15.415Z,999.3
2019-03-11T13:06:15.555Z,999.4
2019-03-11T13:09:15.683Z,999.4
2019-03-11T13:12:15.539Z,999.6
2019-03-11T13:15:15.296Z,999.8
2019-03-11T13:18:15.331Z,999.8
2019-03-11T13:21:15.286Z,1000.0
2019-03-11T13:24:15.352Z,1000.0
2019-03-11T13:27:15.164Z,999.8
2019-03-11T13:30:15.085Z,999.9
2019-03-11T13:33:15.809Z,999.7
2019-03-11T13:36:15.488Z,999.8
2019-03-11T13:39:15.367Z,999.7
2019-03-11T13:42:15.195Z,999.6
2019-03-11T13:45:15.082Z,999.7
2019-03-11T13:48:15.322Z,999.8
2019-03-11T13:51:15.222Z,999.8
2019-03-11T13:54:15.115Z,1000.0
2019-03-11T13:57:15.196Z,999.9
2019-03-11T14:03:18.919Z,1000.1
2019-03-11T14:06:15.755Z,1000.1
2019-03-11T14:09:15.810Z,1000.0
2019-03-11T14:12:15.556Z,1000.0
2019-03-11T14:15:15.303Z,1000.0
2019-03-11T14:18:15.227Z,1000.0
2019-03-11T14:21:24.958Z,999.9
2019-03-11T14:24:15.314Z,999.9
2019-03-11T14:27:15.099Z,1000.0
2019-03-11T14:30:15.032Z,1000.0
2019-03-11T14:33:15.832Z,1000.2
2019-03-11T14:36:15.532Z,1000.2
2019-03-11T14:39:15.460Z,1000.2
2019-03-11T14:42:15.369Z,1000.2
2019-03-11T14:45:15.451Z,1000.2
2019-03-11T14:48:15.198Z,1000.4
2019-03-11T14:51:15.967Z,1000.5
2019-03-11T14:54:15.750Z,1000.3
2019-03-11T14:57:15.597Z,1000.4
2019-03-11T15:00:18.107Z,1000.4
2019-03-11T15:03:15.550Z,1000.3
2019-03-11T15:06:15.406Z,1000.4
2019-03-11T15:09:15.268Z,1000.6
2019-03-11T15:12:15.267Z,1000.6
2019-03-11T15:15:15.133Z,1000.4
2019-03-11T15:18:15.121Z,1000.4
2019-03-11T15:21:15.956Z,1000.5
2019-03-11T15:24:15.890Z,1000.5
2019-03-11T15:27:15.538Z,1000.6
2019-03-11T15:30:15.598Z,1000.7
2019-03-11T15:33:15.446Z,1000.5
2019-03-11T15:36:15.402Z,1000.5
2019-03-11T15:39:15.077Z,1000.6
2019-03-11T15:42:21.655Z,1000.4
2019-03-11T15:45:15.541Z,1000.5
2019-03-11T15:48:15.674Z,1000.6
2019-03-11T15:51:15.497Z,1000.6
2019-03-11T15:54:15.688Z,1000.7
2019-03-11T15:57:15.355Z,1000.7
2019-03-11T16:00:15.920Z,1000.7
2019-03-11T16:03:15.838Z,1000.8
2019-03-11T16:06:15.286Z,1000.8
2019-03-11T16:09:19.251Z,1000.8
2019-03-11T16:12:15.800Z,1000.7
2019-03-11T16:15:15.619Z,1000.9
2019-03-11T16:18:15.691Z,1000.9
2019-03-11T16:21:15.550Z,1000.9
2019-03-11T16:24:15.483Z,1001.1
2019-03-11T16:27:15.167Z,1001.1
2019-03-11T16:30:15.148Z,1001.2
2019-03-11T16:33:15.087Z,1001.0
2019-03-11T16:36:15.120Z,1001.1
2019-03-11T16:39:15.905Z,1001.3
2019-03-11T16:42:15.643Z,1001.2
2019-03-11T16:45:15.577Z,1001.2
2019-03-11T16:48:15.802Z,1001.2
2019-03-11T16:51:15.774Z,1001.3
2019-03-11T16:54:15.631Z,1001.4
2019-03-11T16:57:15.462Z,1001.5
2019-03-11T17:00:15.321Z,1001.5
2019-03-11T17:03:14.978Z,1001.6
2019-03-11T17:06:15.083Z,1001.7
2019-03-11T17:09:15.874Z,1001.7
2019-03-11T17:12:15.783Z,1001.7
2019-03-11T17:15:15.860Z,1001.8
2019-03-11T17:18:15.292Z,1001.9
2019-03-11T17:21:15.154Z,1001.7
2019-03-11T17:24:15.046Z,1001.8
2019-03-11T17:27:15.951Z,1001.9
2019-03-11T17:30:15.894Z,1002.0
2019-03-11T17:33:15.982Z,1002.0
2019-03-11T17:36:15.733Z,1002.0
2019-03-11T17:39:15.660Z,1002.0
2019-03-11T17:42:17.129Z,1002.0
2019-03-11T17:48:18.573Z,1002.2
2019-03-11T17:51:15.888Z,1002.3
2019-03-11T17:54:14.944Z,1002.3
2019-03-11T17:57:15.710Z,1002.4
2019-03-11T18:00:15.561Z,1002.4
2019-03-11T18:03:15.953Z,1002.5
2019-03-11T18:06:15.004Z,1002.5
2019-03-11T18:09:15.824Z,1002.6
2019-03-11T18:12:15.746Z,1002.6
2019-03-11T18:15:15.418Z,1002.7
2019-03-11T18:18:15.477Z,1002.7
2019-03-11T18:21:15.176Z,1002.7
2019-03-11T18:24:15.255Z,1002.8
2019-03-11T18:27:15.148Z,1002.8
2019-03-11T18:30:15.068Z,1002.8
2019-03-11T18:33:16.057Z,1002.7
2019-03-11T18:36:15.958Z,1002.7
2019-03-11T18:39:15.973Z,1002.6
2019-03-11T18:42:24.960Z,1002.6
2019-03-11T18:45:15.183Z,1002.8
2019-03-11T18:48:15.559Z,1002.9
2019-03-11T18:51:15.550Z,1002.8
2019-03-11T18:54:15.479Z,1002.8
2019-03-11T18:57:15.407Z,1002.8
2019-03-11T19:00:15.326Z,1002.9
2019-03-11T19:03:15.185Z,1003.0
2019-03-11T19:06:15.137Z,1002.9
2019-03-11T19:09:15.120Z,1002.7
2019-03-11T19:12:15.947Z,1002.6
2019-03-11T19:15:15.924Z,1002.6
2019-03-11T19:18:15.145Z,1002.7
2019-03-11T19:21:15.261Z,1002.7
2019-03-11T19:24:15.228Z,1002.6
2019-03-11T19:27:15.445Z,1002.6
2019-03-11T19:30:15.196Z,1002.6
2019-03-11T19:33:15.239Z,1002.5
2019-03-11T19:36:15.218Z,1002.4
2019-03-11T19:39:15.952Z,1002.6
2019-03-11T19:42:15.963Z,1002.5
2019-03-11T19:45:15.864Z,1002.8
2019-03-11T19:48:16.080Z,1002.6
2019-03-11T19:51:15.719Z,1002.7
2019-03-11T19:54:15.938Z,1002.8
2019-03-11T19:57:15.056Z,1002.9
2019-03-11T20:00:15.098Z,1002.7
2019-03-11T20:03:26.436Z,1003.0
2019-03-11T20:06:15.145Z,1003.0
2019-03-11T20:09:16.076Z,1002.9
2019-03-11T20:12:15.704Z,1003.0
2019-03-11T20:15:15.737Z,1003.0
2019-03-11T20:18:15.824Z,1003.1
2019-03-11T20:21:15.969Z,1003.2
2019-03-11T20:24:15.955Z,1003.2
2019-03-11T20:27:15.875Z,1003.3
2019-03-11T20:30:15.848Z,1003.3
2019-03-11T20:33:15.027Z,1003.5
2019-03-11T20:36:20.651Z,1003.4
2019-03-11T20:39:15.431Z,1003.5
2019-03-11T20:42:15.271Z,1003.6
2019-03-11T20:45:15.592Z,1003.6
2019-03-11T20:48:15.524Z,1003.8
2019-03-11T20:51:15.562Z,1003.6
2019-03-11T20:54:15.596Z,1003.9
2019-03-11T20:57:15.661Z,1003.9
2019-03-11T21:00:15.587Z,1003.9
2019-03-11T21:03:15.904Z,1003.7
2019-03-11T21:06:16.044Z,1004.0
2019-03-11T21:09:15.072Z,1004.1
2019-03-11T21:12:15.968Z,1004.1
2019-03-11T21:15:15.951Z,1004.0
2019-03-11T21:18:15.958Z,1004.1
2019-03-11T21:21:15.832Z,1004.1
2019-03-11T21:24:15.849Z,1004.1
2019-03-11T21:27:15.741Z,1004.1
2019-03-11T21:30:15.512Z,1004.1
2019-03-11T21:33:15.628Z,1004.1
2019-03-11T21:36:15.971Z,1004.2
2019-03-11T21:39:39.489Z,1004.2
2019-03-11T21:42:15.255Z,1004.2
2019-03-11T21:45:15.097Z,1004.3
2019-03-11T21:48:15.226Z,1004.2
2019-03-11T21:51:15.139Z,1004.3
2019-03-11T21:54:15.117Z,1004.4
2019-03-11T21:57:15.091Z,1004.4
2019-03-11T22:00:15.023Z,1004.7
2019-03-11T22:03:15.319Z,1004.7
2019-03-11T22:06:15.108Z,1004.9
2019-03-11T22:09:15.484Z,1004.8
2019-03-11T22:12:15.181Z,1004.9
2019-03-11T22:15:15.829Z,1004.8
2019-03-11T22:18:15.689Z,1004.8
2019-03-11T22:21:15.475Z,1004.8
2019-03-11T22:24:15.410Z,1004.9
2019-03-11T22:27:15.253Z,1004.9
2019-03-11T22:30:15.011Z,1004.9
2019-03-11T22:33:15.936Z,1004.9
2019-03-11T22:36:15.574Z,1005.0
2019-03-11T22:39:15.289Z,1004.9
2019-03-11T22:42:15.037Z,1005.1
2019-03-11T22:45:16.994Z,1005.0
2019-03-11T22:48:15.923Z,1005.2
2019-03-11T22:51:15.535Z,1005.4
2019-03-11T22:54:15.832Z,1005.5
2019-03-11T22:57:15.548Z,1005.5
2019-03-11T23:00:15.582Z,1005.6
2019-03-11T23:03:14.970Z,1005.5
2019-03-11T23:06:15.279Z,1005.6
2019-03-11T23:09:15.002Z,1005.4
2019-03-11T23:12:15.568Z,1005.4
2019-03-11T23:15:15.104Z,1005.3
2019-03-11T23:18:15.893Z,1005.2
2019-03-11T23:27:15.970Z,1005.1
2019-03-11T23:30:15.492Z,1005.0
2019-03-11T23:33:15.492Z,1005.0
2019-03-11T23:36:15.446Z,1005.0
2019-03-11T23:39:15.338Z,1005.2
2019-03-11T23:42:15.054Z,1005.3
2019-03-11T23:45:15.886Z,1005.6
2019-03-11T23:48:15.519Z,1005.8
2019-03-11T23:51:15.190Z,1005.9
2019-03-11T23:54:15.024Z,1006.0
2019-03-11T23:57:15.793Z,1006.2
